sensor_id;sensor_type;location;lat;lon;timestamp;pressure;altitude;pressure_sealevel;temperature;humidity
24306;BME280;12423;48.768;8.850;2022-10-20T00:00:33;97274.50;;;9.80;100.00
24306;BME280;12423;48.768;8.850;2022-10-20T00:02:34;97280.34;;;9.73;100.00
24306;BME280;12423;48.768;8.850;2022-10-20T00:04:35;97281.78;;;9.77;100.00
24306;BME280;12423;48.768;8.850;2022-10-20T00:06:36;97281.78;;;9.77;100.00
24306;BME280;12423;48.768;8.850;2022-10-20T00:08:38;97278.75;;;9.71;100.00
24306;BME280;12423;48.768;8.850;2022-10-20T00:10:39;97271.94;;;9.67;100.00
24306;BME280;12423;48.768;8.850;2022-10-20T00:12:40;97276.69;;;9.74;100.00
24306;BME280;12423;48.768;8.850;2022-10-20T00:14:41;97276.44;;;9.77;100.00
24306;BME280;12423;48.768;8.850;2022-10-20T00:16:42;97279.34;;;9.63;100.00
24306;BME280;12423;48.768;8.850;2022-10-20T00:18:43;97283.50;;;9.67;100.00
24306;BME280;12423;48.768;8.850;2022-10-20T00:20:44;97275.00;;;9.73;100.00
24306;BME280;12423;48.768;8.850;2022-10-20T00:22:45;97276.22;;;9.81;100.00
24306;BME280;12423;48.768;8.850;2022-10-20T00:24:46;97271.34;;;9.74;100.00
24306;BME280;12423;48.768;8.850;2022-10-20T00:26:47;97262.63;;;9.61;100.00
24306;BME280;12423;48.768;8.850;2022-10-20T00:28:50;97272.31;;;9.51;100.00
24306;BME280;12423;48.768;8.850;2022-10-20T00:30:53;97263.09;;;9.55;100.00
24306;BME280;12423;48.768;8.850;2022-10-20T00:32:55;97270.72;;;9.48;100.00
24306;BME280;12423;48.768;8.850;2022-10-20T00:34:56;97268.31;;;9.56;100.00
24306;BME280;12423;48.768;8.850;2022-10-20T00:36:57;97263.94;;;9.67;100.00
24306;BME280;12423;48.768;8.850;2022-10-20T00:38:59;97261.66;;;9.51;100.00
24306;BME280;12423;48.768;8.850;2022-10-20T00:41:01;97265.75;;;9.44;100.00
24306;BME280;12423;48.768;8.850;2022-10-20T00:43:12;97253.16;;;9.46;100.00
24306;BME280;12423;48.768;8.850;2022-10-20T00:45:18;97263.09;;;9.44;100.00
24306;BME280;12423;48.768;8.850;2022-10-20T00:47:33;97257.16;;;9.40;100.00
24306;BME280;12423;48.768;8.850;2022-10-20T00:49:35;97254.13;;;9.33;100.00
24306;BME280;12423;48.768;8.850;2022-10-20T00:51:36;97239.81;;;9.34;100.00
24306;BME280;12423;48.768;8.850;2022-10-20T00:53:37;97231.94;;;9.21;100.00
24306;BME280;12423;48.768;8.850;2022-10-20T00:55:39;97232.75;;;9.22;100.00
24306;BME280;12423;48.768;8.850;2022-10-20T00:57:45;97229.28;;;9.33;100.00
24306;BME280;12423;48.768;8.850;2022-10-20T00:59:46;97221.63;;;9.28;100.00
24306;BME280;12423;48.768;8.850;2022-10-20T01:01:47;97222.09;;;9.22;100.00
24306;BME280;12423;48.768;8.850;2022-10-20T01:03:50;97223.69;;;9.13;100.00
24306;BME280;12423;48.768;8.850;2022-10-20T01:05:51;97233.00;;;9.08;100.00
24306;BME280;12423;48.768;8.850;2022-10-20T01:07:52;97221.13;;;9.12;100.00
24306;BME280;12423;48.768;8.850;2022-10-20T01:09:53;97219.94;;;9.16;100.00
24306;BME280;12423;48.768;8.850;2022-10-20T01:12:06;97227.69;;;9.19;100.00
24306;BME280;12423;48.768;8.850;2022-10-20T01:17:00;97217.28;;;9.16;100.00
24306;BME280;12423;48.768;8.850;2022-10-20T01:19:18;97225.72;;;9.10;100.00
24306;BME280;12423;48.768;8.850;2022-10-20T01:21:45;97217.25;;;9.27;100.00
24306;BME280;12423;48.768;8.850;2022-10-20T01:24:16;97220.44;;;9.32;100.00
24306;BME280;12423;48.768;8.850;2022-10-20T01:30:42;97203.34;;;9.46;100.00
24306;BME280;12423;48.768;8.850;2022-10-20T01:39:30;97190.50;;;9.06;100.00
24306;BME280;12423;48.768;8.850;2022-10-20T01:41:38;97194.59;;;9.21;100.00
24306;BME280;12423;48.768;8.850;2022-10-20T01:43:42;97188.91;;;9.15;100.00
24306;BME280;12423;48.768;8.850;2022-10-20T01:45:47;97184.06;;;9.20;100.00
24306;BME280;12423;48.768;8.850;2022-10-20T01:47:50;97184.31;;;9.28;100.00
24306;BME280;12423;48.768;8.850;2022-10-20T01:49:52;97186.84;;;9.18;100.00
24306;BME280;12423;48.768;8.850;2022-10-20T01:51:54;97183.69;;;9.13;100.00
24306;BME280;12423;48.768;8.850;2022-10-20T01:53:56;97178.50;;;9.12;100.00
24306;BME280;12423;48.768;8.850;2022-10-20T01:55:58;97175.94;;;9.10;100.00
24306;BME280;12423;48.768;8.850;2022-10-20T02:00:40;97167.72;;;9.13;100.00
24306;BME280;12423;48.768;8.850;2022-10-20T02:07:17;97154.50;;;9.12;100.00
24306;BME280;12423;48.768;8.850;2022-10-20T02:09:33;97157.91;;;9.02;100.00
24306;BME280;12423;48.768;8.850;2022-10-20T02:11:47;97160.19;;;9.07;100.00
24306;BME280;12423;48.768;8.850;2022-10-20T02:13:53;97154.03;;;9.18;100.00
24306;BME280;12423;48.768;8.850;2022-10-20T02:15:58;97146.50;;;9.12;100.00
24306;BME280;12423;48.768;8.850;2022-10-20T02:18:05;97144.69;;;9.01;100.00
24306;BME280;12423;48.768;8.850;2022-10-20T02:20:09;97151.59;;;9.15;100.00
24306;BME280;12423;48.768;8.850;2022-10-20T02:22:12;97149.66;;;9.06;100.00
24306;BME280;12423;48.768;8.850;2022-10-20T02:24:15;97150.03;;;9.01;100.00
24306;BME280;12423;48.768;8.850;2022-10-20T02:26:19;97144.81;;;9.11;100.00
24306;BME280;12423;48.768;8.850;2022-10-20T02:28:22;97148.34;;;9.22;100.00
24306;BME280;12423;48.768;8.850;2022-10-20T02:30:23;97144.81;;;9.11;100.00
24306;BME280;12423;48.768;8.850;2022-10-20T02:32:25;97145.06;;;9.08;100.00
24306;BME280;12423;48.768;8.850;2022-10-20T02:34:27;97136.69;;;9.12;100.00
24306;BME280;12423;48.768;8.850;2022-10-20T02:36:29;97139.75;;;9.08;100.00
24306;BME280;12423;48.768;8.850;2022-10-20T02:38:30;97133.66;;;9.06;100.00
24306;BME280;12423;48.768;8.850;2022-10-20T02:40:31;97134.03;;;9.01;100.00
24306;BME280;12423;48.768;8.850;2022-10-20T02:42:32;97131.25;;;9.02;100.00
24306;BME280;12423;48.768;8.850;2022-10-20T02:44:33;97140.09;;;9.14;100.00
24306;BME280;12423;48.768;8.850;2022-10-20T02:46:34;97140.56;;;9.08;100.00
24306;BME280;12423;48.768;8.850;2022-10-20T02:48:35;97148.44;;;9.10;100.00
24306;BME280;12423;48.768;8.850;2022-10-20T02:50:38;97138.63;;;9.10;100.00
24306;BME280;12423;48.768;8.850;2022-10-20T02:52:39;97131.75;;;9.19;100.00
24306;BME280;12423;48.768;8.850;2022-10-20T02:54:40;97129.31;;;9.16;100.00
24306;BME280;12423;48.768;8.850;2022-10-20T02:56:41;97125.19;;;9.12;100.00
24306;BME280;12423;48.768;8.850;2022-10-20T02:58:42;97127.72;;;9.13;100.00
24306;BME280;12423;48.768;8.850;2022-10-20T03:00:43;97127.13;;;9.10;100.00
24306;BME280;12423;48.768;8.850;2022-10-20T03:02:45;97125.91;;;9.14;100.00
24306;BME280;12423;48.768;8.850;2022-10-20T03:04:47;97125.53;;;9.07;100.00
24306;BME280;12423;48.768;8.850;2022-10-20T03:06:48;97128.72;;;9.01;100.00
24306;BME280;12423;48.768;8.850;2022-10-20T03:08:49;97127.72;;;9.02;100.00
24306;BME280;12423;48.768;8.850;2022-10-20T03:10:50;97131.22;;;9.14;100.00
24306;BME280;12423;48.768;8.850;2022-10-20T03:12:51;97131.50;;;9.11;100.00
24306;BME280;12423;48.768;8.850;2022-10-20T03:14:52;97132.47;;;9.10;100.00
24306;BME280;12423;48.768;8.850;2022-10-20T03:16:53;97137.56;;;9.13;100.00
24306;BME280;12423;48.768;8.850;2022-10-20T03:18:55;97133.44;;;9.20;100.00
24306;BME280;12423;48.768;8.850;2022-10-20T03:20:56;97130.28;;;9.15;100.00
24306;BME280;12423;48.768;8.850;2022-10-20T03:22:57;97130.75;;;9.09;100.00
24306;BME280;12423;48.768;8.850;2022-10-20T03:24:58;97130.03;;;9.07;100.00
24306;BME280;12423;48.768;8.850;2022-10-20T03:26:59;97127.63;;;9.15;100.00
24306;BME280;12423;48.768;8.850;2022-10-20T03:29:00;97127.13;;;9.21;100.00
24306;BME280;12423;48.768;8.850;2022-10-20T03:31:01;97122.66;;;9.21;100.00
24306;BME280;12423;48.768;8.850;2022-10-20T03:33:02;97122.28;;;9.26;100.00
24306;BME280;12423;48.768;8.850;2022-10-20T03:35:03;97119.03;;;9.22;100.00
24306;BME280;12423;48.768;8.850;2022-10-20T03:37:04;97110.50;;;9.29;100.00
24306;BME280;12423;48.768;8.850;2022-10-20T03:39:05;97114.53;;;9.23;100.00
24306;BME280;12423;48.768;8.850;2022-10-20T03:41:06;97121.94;;;9.31;100.00
24306;BME280;12423;48.768;8.850;2022-10-20T03:43:08;97105.69;;;9.22;100.00
24306;BME280;12423;48.768;8.850;2022-10-20T03:45:09;97109.19;;;9.23;100.00
24306;BME280;12423;48.768;8.850;2022-10-20T03:47:11;97106.53;;;9.23;100.00
24306;BME280;12423;48.768;8.850;2022-10-20T03:49:13;97106.28;;;9.26;100.00
24306;BME280;12423;48.768;8.850;2022-10-20T03:51:14;97105.53;;;9.35;100.00
24306;BME280;12423;48.768;8.850;2022-10-20T03:53:15;97108.72;;;9.40;100.00
24306;BME280;12423;48.768;8.850;2022-10-20T03:55:17;97114.53;;;9.46;100.00
24306;BME280;12423;48.768;8.850;2022-10-20T03:57:19;97115.22;;;9.48;100.00
24306;BME280;12423;48.768;8.850;2022-10-20T03:59:20;97103.97;;;9.44;100.00
24306;BME280;12423;48.768;8.850;2022-10-20T04:01:27;97104.56;;;9.48;100.00
24306;BME280;12423;48.768;8.850;2022-10-20T04:03:28;97093.66;;;9.51;100.00
24306;BME280;12423;48.768;8.850;2022-10-20T04:05:29;97090.00;;;9.52;100.00
24306;BME280;12423;48.768;8.850;2022-10-20T04:07:30;97086.63;;;9.50;100.00
24306;BME280;12423;48.768;8.850;2022-10-20T04:09:31;97085.66;;;9.51;100.00
24306;BME280;12423;48.768;8.850;2022-10-20T04:11:33;97086.75;;;9.48;100.00
24306;BME280;12423;48.768;8.850;2022-10-20T04:13:34;97096.69;;;9.46;100.00
24306;BME280;12423;48.768;8.850;2022-10-20T04:15:35;97086.88;;;9.47;100.00
24306;BME280;12423;48.768;8.850;2022-10-20T04:17:36;97091.13;;;9.49;100.00
24306;BME280;12423;48.768;8.850;2022-10-20T04:19:37;97085.53;;;9.52;100.00
24306;BME280;12423;48.768;8.850;2022-10-20T04:21:38;97085.88;;;9.59;100.00
24306;BME280;12423;48.768;8.850;2022-10-20T04:23:39;97081.75;;;9.55;100.00
24306;BME280;12423;48.768;8.850;2022-10-20T04:25:42;97082.75;;;9.54;100.00
24306;BME280;12423;48.768;8.850;2022-10-20T04:27:48;97081.28;;;9.50;100.00
24306;BME280;12423;48.768;8.850;2022-10-20T04:29:49;97082.75;;;9.54;100.00
24306;BME280;12423;48.768;8.850;2022-10-20T04:31:50;97091.59;;;9.54;100.00
24306;BME280;12423;48.768;8.850;2022-10-20T04:33:51;97081.88;;;9.53;100.00
24306;BME280;12423;48.768;8.850;2022-10-20T04:36:11;97082.63;;;9.55;100.00
24306;BME280;12423;48.768;8.850;2022-10-20T04:38:13;97079.84;;;9.57;100.00
24306;BME280;12423;48.768;8.850;2022-10-20T04:40:14;97076.88;;;9.60;100.00
24306;BME280;12423;48.768;8.850;2022-10-20T04:42:16;97074.34;;;9.58;100.00
24306;BME280;12423;48.768;8.850;2022-10-20T04:44:17;97073.59;;;9.68;100.00
24306;BME280;12423;48.768;8.850;2022-10-20T04:46:18;97075.69;;;9.64;100.00
24306;BME280;12423;48.768;8.850;2022-10-20T04:48:19;97066.84;;;9.64;100.00
24306;BME280;12423;48.768;8.850;2022-10-20T04:50:20;97062.56;;;9.72;100.00
24306;BME280;12423;48.768;8.850;2022-10-20T04:52:31;97056.00;;;9.76;100.00
24306;BME280;12423;48.768;8.850;2022-10-20T04:54:32;97061.31;;;9.76;100.00
24306;BME280;12423;48.768;8.850;2022-10-20T04:56:33;97063.03;;;9.77;100.00
24306;BME280;12423;48.768;8.850;2022-10-20T04:58:34;97056.00;;;9.76;100.00
24306;BME280;12423;48.768;8.850;2022-10-20T05:00:37;97054.06;;;9.78;100.00
24306;BME280;12423;48.768;8.850;2022-10-20T05:02:38;97061.53;;;9.85;100.00
24306;BME280;12423;48.768;8.850;2022-10-20T05:04:39;97056.31;;;9.83;100.00
24306;BME280;12423;48.768;8.850;2022-10-20T05:06:40;97062.16;;;9.88;100.00
24306;BME280;12423;48.768;8.850;2022-10-20T05:08:43;97059.63;;;9.87;100.00
24306;BME280;12423;48.768;8.850;2022-10-20T05:10:45;97051.31;;;9.90;100.00
24306;BME280;12423;48.768;8.850;2022-10-20T05:12:46;97046.59;;;9.93;100.00
24306;BME280;12423;48.768;8.850;2022-10-20T05:14:47;97042.44;;;10.01;100.00
24306;BME280;12423;48.768;8.850;2022-10-20T05:16:48;97048.25;;;10.06;100.00
24306;BME280;12423;48.768;8.850;2022-10-20T05:18:49;97052.34;;;10.10;100.00
24306;BME280;12423;48.768;8.850;2022-10-20T05:20:51;97034.06;;;10.05;100.00
24306;BME280;12423;48.768;8.850;2022-10-20T05:22:53;97033.81;;;10.08;100.00
24306;BME280;12423;48.768;8.850;2022-10-20T05:24:54;97029.03;;;10.12;100.00
24306;BME280;12423;48.768;8.850;2022-10-20T05:26:55;97039.47;;;10.15;100.00
24306;BME280;12423;48.768;8.850;2022-10-20T05:28:56;97022.31;;;10.18;100.00
24306;BME280;12423;48.768;8.850;2022-10-20T05:31:05;97017.00;;;10.18;100.00
24306;BME280;12423;48.768;8.850;2022-10-20T05:33:06;97020.66;;;10.17;100.00
24306;BME280;12423;48.768;8.850;2022-10-20T05:35:08;97009.22;;;10.14;100.00
24306;BME280;12423;48.768;8.850;2022-10-20T05:37:09;97018.94;;;10.15;100.00
24306;BME280;12423;48.768;8.850;2022-10-20T05:39:10;97012.78;;;10.15;100.00
24306;BME280;12423;48.768;8.850;2022-10-20T05:41:13;97008.28;;;10.15;100.00
24306;BME280;12423;48.768;8.850;2022-10-20T05:43:15;97015.69;;;10.12;100.00
24306;BME280;12423;48.768;8.850;2022-10-20T05:45:16;97012.06;;;10.13;100.00
24306;BME280;12423;48.768;8.850;2022-10-20T05:47:17;97011.59;;;10.08;100.00
24306;BME280;12423;48.768;8.850;2022-10-20T05:49:18;97003.69;;;10.06;100.00
24306;BME280;12423;48.768;8.850;2022-10-20T05:51:21;96999.09;;;10.08;100.00
24306;BME280;12423;48.768;8.850;2022-10-20T05:53:22;97005.47;;;10.17;100.00
24306;BME280;12423;48.768;8.850;2022-10-20T05:55:24;97006.84;;;10.11;100.00
24306;BME280;12423;48.768;8.850;2022-10-20T05:57:25;97007.56;;;10.13;100.00
24306;BME280;12423;48.768;8.850;2022-10-20T05:59:26;97008.91;;;10.08;100.00
24306;BME280;12423;48.768;8.850;2022-10-20T06:01:29;97009.41;;;10.13;100.00
24306;BME280;12423;48.768;8.850;2022-10-20T06:03:57;97015.56;;;10.13;100.00
24306;BME280;12423;48.768;8.850;2022-10-20T06:06:00;97013.75;;;10.14;100.00
24306;BME280;12423;48.768;8.850;2022-10-20T06:08:01;97010.22;;;10.13;100.00
24306;BME280;12423;48.768;8.850;2022-10-20T06:10:03;97018.38;;;10.12;100.00
24306;BME280;12423;48.768;8.850;2022-10-20T06:12:04;97021.41;;;10.07;100.00
24306;BME280;12423;48.768;8.850;2022-10-20T06:14:07;97024.09;;;10.07;100.00
24306;BME280;12423;48.768;8.850;2022-10-20T06:16:14;97032.09;;;10.07;100.00
24306;BME280;12423;48.768;8.850;2022-10-20T06:18:15;97031.25;;;10.07;100.00
24306;BME280;12423;48.768;8.850;2022-10-20T06:20:16;97036.84;;;10.04;100.00
24306;BME280;12423;48.768;8.850;2022-10-20T06:22:17;97032.47;;;10.03;100.00
24306;BME280;12423;48.768;8.850;2022-10-20T06:24:19;97027.34;;;10.11;100.00
24306;BME280;12423;48.768;8.850;2022-10-20T06:26:22;97042.00;;;10.17;100.00
24306;BME280;12423;48.768;8.850;2022-10-20T06:28:23;97039.34;;;10.17;100.00
24306;BME280;12423;48.768;8.850;2022-10-20T06:30:24;97045.97;;;10.22;100.00
24306;BME280;12423;48.768;8.850;2022-10-20T06:32:25;97042.34;;;10.23;100.00
24306;BME280;12423;48.768;8.850;2022-10-20T06:34:26;97038.53;;;10.26;100.00
24306;BME280;12423;48.768;8.850;2022-10-20T06:36:27;97032.94;;;10.29;100.00
24306;BME280;12423;48.768;8.850;2022-10-20T06:38:28;97038.75;;;10.34;100.00
24306;BME280;12423;48.768;8.850;2022-10-20T06:40:29;97029.66;;;10.37;100.00
24306;BME280;12423;48.768;8.850;2022-10-20T06:42:30;97027.31;;;10.43;100.00
24306;BME280;12423;48.768;8.850;2022-10-20T06:44:34;97032.13;;;10.49;100.00
24306;BME280;12423;48.768;8.850;2022-10-20T06:46:35;97020.91;;;10.56;100.00
24306;BME280;12423;48.768;8.850;2022-10-20T06:48:37;97039.06;;;10.62;100.00
24306;BME280;12423;48.768;8.850;2022-10-20T06:50:38;97033.03;;;10.60;100.00
24306;BME280;12423;48.768;8.850;2022-10-20T06:52:39;97034.31;;;10.65;100.00
24306;BME280;12423;48.768;8.850;2022-10-20T06:54:40;97036.47;;;10.72;100.00
24306;BME280;12423;48.768;8.850;2022-10-20T06:56:41;97042.13;;;10.78;100.00
24306;BME280;12423;48.768;8.850;2022-10-20T06:58:44;97044.44;;;10.93;100.00
24306;BME280;12423;48.768;8.850;2022-10-20T07:00:45;97038.56;;;10.99;100.00
24306;BME280;12423;48.768;8.850;2022-10-20T07:02:46;97038.44;;;11.10;100.00
24306;BME280;12423;48.768;8.850;2022-10-20T07:04:50;97033.84;;;11.22;100.00
24306;BME280;12423;48.768;8.850;2022-10-20T07:06:51;97028.06;;;11.27;100.00
24306;BME280;12423;48.768;8.850;2022-10-20T07:08:53;97025.41;;;11.27;100.00
24306;BME280;12423;48.768;8.850;2022-10-20T07:11:07;97023.31;;;11.30;100.00
24306;BME280;12423;48.768;8.850;2022-10-20T07:13:08;97028.97;;;11.37;100.00
24306;BME280;12423;48.768;8.850;2022-10-20T07:15:09;97021.50;;;11.40;100.00
24306;BME280;12423;48.768;8.850;2022-10-20T07:17:10;97014.47;;;11.49;100.00
24306;BME280;12423;48.768;8.850;2022-10-20T07:19:11;97030.25;;;11.52;100.00
24306;BME280;12423;48.768;8.850;2022-10-20T07:21:18;97027.72;;;11.60;100.00
24306;BME280;12423;48.768;8.850;2022-10-20T07:23:19;97019.28;;;11.65;100.00
24306;BME280;12423;48.768;8.850;2022-10-20T07:25:21;97022.94;;;11.64;100.00
24306;BME280;12423;48.768;8.850;2022-10-20T07:27:22;97028.56;;;11.71;100.00
24306;BME280;12423;48.768;8.850;2022-10-20T07:29:23;97036.34;;;11.74;100.00
24306;BME280;12423;48.768;8.850;2022-10-20T07:31:50;97034.50;;;11.84;100.00
24306;BME280;12423;48.768;8.850;2022-10-20T07:33:51;97027.03;;;11.88;100.00
24306;BME280;12423;48.768;8.850;2022-10-20T07:35:52;97024.81;;;12.03;100.00
24306;BME280;12423;48.768;8.850;2022-10-20T07:37:54;97026.22;;;12.07;100.00
24306;BME280;12423;48.768;8.850;2022-10-20T07:39:55;97021.00;;;12.15;100.00
24306;BME280;12423;48.768;8.850;2022-10-20T07:41:56;97028.34;;;12.23;100.00
24306;BME280;12423;48.768;8.850;2022-10-20T07:43:57;97029.59;;;12.28;100.00
24306;BME280;12423;48.768;8.850;2022-10-20T07:45:58;97028.63;;;12.29;100.00
24306;BME280;12423;48.768;8.850;2022-10-20T07:47:59;97024.78;;;12.32;100.00
24306;BME280;12423;48.768;8.850;2022-10-20T07:50:00;97034.53;;;12.33;100.00
24306;BME280;12423;48.768;8.850;2022-10-20T07:52:01;97023.09;;;12.41;100.00
24306;BME280;12423;48.768;8.850;2022-10-20T07:54:04;97025.47;;;12.44;100.00
24306;BME280;12423;48.768;8.850;2022-10-20T07:56:07;97021.25;;;12.51;100.00
24306;BME280;12423;48.768;8.850;2022-10-20T07:58:09;97028.53;;;12.59;100.00
24306;BME280;12423;48.768;8.850;2022-10-20T08:00:10;97026.56;;;12.70;100.00
24306;BME280;12423;48.768;8.850;2022-10-20T08:02:12;97021.59;;;12.76;100.00
24306;BME280;12423;48.768;8.850;2022-10-20T08:04:15;97022.69;;;12.83;100.00
24306;BME280;12423;48.768;8.850;2022-10-20T08:06:16;97010.94;;;12.94;100.00
24306;BME280;12423;48.768;8.850;2022-10-20T08:08:17;97004.69;;;13.03;100.00
24306;BME280;12423;48.768;8.850;2022-10-20T08:10:18;97002.97;;;13.12;100.00
24306;BME280;12423;48.768;8.850;2022-10-20T08:12:19;97002.75;;;13.23;100.00
24306;BME280;12423;48.768;8.850;2022-10-20T08:14:20;96999.91;;;13.24;100.00
24306;BME280;12423;48.768;8.850;2022-10-20T08:16:22;96996.09;;;13.27;100.00
24306;BME280;12423;48.768;8.850;2022-10-20T08:18:23;97010.16;;;13.39;100.00
24306;BME280;12423;48.768;8.850;2022-10-20T08:20:24;97006.94;;;13.35;100.00
24306;BME280;12423;48.768;8.850;2022-10-20T08:22:25;97006.03;;;13.44;100.00
24306;BME280;12423;48.768;8.850;2022-10-20T08:24:26;97014.31;;;13.51;100.00
24306;BME280;12423;48.768;8.850;2022-10-20T08:26:27;96999.69;;;13.63;100.00
24306;BME280;12423;48.768;8.850;2022-10-20T08:28:28;96993.66;;;13.61;100.00
24306;BME280;12423;48.768;8.850;2022-10-20T08:30:30;96992.63;;;13.62;100.00
24306;BME280;12423;48.768;8.850;2022-10-20T08:32:31;97006.28;;;13.69;100.00
24306;BME280;12423;48.768;8.850;2022-10-20T08:34:32;97015.06;;;13.71;100.00
24306;BME280;12423;48.768;8.850;2022-10-20T08:36:33;97014.13;;;13.80;100.00
24306;BME280;12423;48.768;8.850;2022-10-20T08:38:37;97007.00;;;13.89;100.00
24306;BME280;12423;48.768;8.850;2022-10-20T08:40:40;96999.19;;;13.96;100.00
24306;BME280;12423;48.768;8.850;2022-10-20T08:42:43;96990.31;;;14.04;100.00
24306;BME280;12423;48.768;8.850;2022-10-20T08:44:45;97007.69;;;14.09;100.00
24306;BME280;12423;48.768;8.850;2022-10-20T08:46:47;97012.75;;;14.12;100.00
24306;BME280;12423;48.768;8.850;2022-10-20T08:48:48;97008.59;;;14.18;100.00
24306;BME280;12423;48.768;8.850;2022-10-20T08:50:50;97001.34;;;14.18;100.00
24306;BME280;12423;48.768;8.850;2022-10-20T08:52:56;97013.31;;;14.42;100.00
24306;BME280;12423;48.768;8.850;2022-10-20T08:54:59;97017.72;;;14.51;100.00
24306;BME280;12423;48.768;8.850;2022-10-20T08:57:00;97017.03;;;14.67;100.00
24306;BME280;12423;48.768;8.850;2022-10-20T08:59:01;97012.91;;;14.81;100.00
24306;BME280;12423;48.768;8.850;2022-10-20T09:01:15;97015.84;;;14.96;100.00
24306;BME280;12423;48.768;8.850;2022-10-20T09:03:22;97040.34;;;15.19;100.00
24306;BME280;12423;48.768;8.850;2022-10-20T09:05:26;97028.78;;;15.27;100.00
24306;BME280;12423;48.768;8.850;2022-10-20T09:07:31;97023.78;;;15.40;100.00
24306;BME280;12423;48.768;8.850;2022-10-20T09:09:33;97018.56;;;15.47;100.00
24306;BME280;12423;48.768;8.850;2022-10-20T09:11:37;97023.13;;;15.46;100.00
24306;BME280;12423;48.768;8.850;2022-10-20T09:13:40;97035.81;;;15.62;100.00
24306;BME280;12423;48.768;8.850;2022-10-20T09:15:41;97021.34;;;15.72;100.00
24306;BME280;12423;48.768;8.850;2022-10-20T09:17:52;97014.66;;;15.76;100.00
24306;BME280;12423;48.768;8.850;2022-10-20T09:19:55;97014.13;;;15.80;100.00
24306;BME280;12423;48.768;8.850;2022-10-20T09:22:03;97016.00;;;15.88;100.00
24306;BME280;12423;48.768;8.850;2022-10-20T09:24:05;97024.09;;;15.88;100.00
24306;BME280;12423;48.768;8.850;2022-10-20T09:26:16;97049.84;;;15.82;100.00
24306;BME280;12423;48.768;8.850;2022-10-20T09:28:26;97043.25;;;15.77;100.00
24306;BME280;12423;48.768;8.850;2022-10-20T09:34:33;97056.56;;;15.78;100.00
24306;BME280;12423;48.768;8.850;2022-10-20T09:36:34;97048.34;;;15.88;100.00
24306;BME280;12423;48.768;8.850;2022-10-20T09:38:36;97051.72;;;15.98;100.00
24306;BME280;12423;48.768;8.850;2022-10-20T09:41:13;97063.22;;;16.09;100.00
24306;BME280;12423;48.768;8.850;2022-10-20T09:43:17;97058.16;;;16.14;100.00
24306;BME280;12423;48.768;8.850;2022-10-20T09:45:29;97050.06;;;16.22;100.00
24306;BME280;12423;48.768;8.850;2022-10-20T09:47:32;97060.53;;;16.33;100.00
24306;BME280;12423;48.768;8.850;2022-10-20T09:49:35;97052.94;;;16.20;100.00
24306;BME280;12423;48.768;8.850;2022-10-20T09:51:45;97038.25;;;16.07;100.00
24306;BME280;12423;48.768;8.850;2022-10-20T09:53:51;97031.22;;;16.14;100.00
24306;BME280;12423;48.768;8.850;2022-10-20T09:55:54;97032.22;;;16.37;100.00
24306;BME280;12423;48.768;8.850;2022-10-20T09:57:58;97040.97;;;16.56;100.00
24306;BME280;12423;48.768;8.850;2022-10-20T10:00:00;97043.63;;;16.81;100.00
24306;BME280;12423;48.768;8.850;2022-10-20T10:02:28;97044.31;;;16.91;100.00
24306;BME280;12423;48.768;8.850;2022-10-20T10:04:41;97044.25;;;17.07;100.00
24306;BME280;12423;48.768;8.850;2022-10-20T10:06:43;97045.91;;;17.25;100.00
24306;BME280;12423;48.768;8.850;2022-10-20T10:08:46;97041.53;;;17.16;100.00
24306;BME280;12423;48.768;8.850;2022-10-20T10:11:04;97029.81;;;16.75;100.00
24306;BME280;12423;48.768;8.850;2022-10-20T10:13:21;97048.56;;;16.52;100.00
24306;BME280;12423;48.768;8.850;2022-10-20T10:17:33;97047.53;;;16.78;100.00
24306;BME280;12423;48.768;8.850;2022-10-20T10:19:36;97053.09;;;16.93;100.00
24306;BME280;12423;48.768;8.850;2022-10-20T10:21:50;97042.59;;;17.06;100.00
24306;BME280;12423;48.768;8.850;2022-10-20T10:25:56;97033.25;;;17.25;100.00
24306;BME280;12423;48.768;8.850;2022-10-20T10:28:03;97046.19;;;17.38;100.00
24306;BME280;12423;48.768;8.850;2022-10-20T10:32:27;97043.19;;;17.33;100.00
24306;BME280;12423;48.768;8.850;2022-10-20T10:36:35;97039.84;;;17.23;100.00
24306;BME280;12423;48.768;8.850;2022-10-20T10:38:37;97034.81;;;17.11;100.00
24306;BME280;12423;48.768;8.850;2022-10-20T10:40:54;97026.06;;;17.09;100.00
24306;BME280;12423;48.768;8.850;2022-10-20T10:45:17;97016.28;;;17.08;100.00
24306;BME280;12423;48.768;8.850;2022-10-20T10:52:34;97027.31;;;17.30;100.00
24306;BME280;12423;48.768;8.850;2022-10-20T10:54:46;97057.91;;;17.14;100.00
24306;BME280;12423;48.768;8.850;2022-10-20T10:56:53;97040.50;;;17.25;100.00
24306;BME280;12423;48.768;8.850;2022-10-20T10:59:17;97040.16;;;17.28;100.00
24306;BME280;12423;48.768;8.850;2022-10-20T11:09:17;97032.06;;;17.28;100.00
24306;BME280;12423;48.768;8.850;2022-10-20T11:13:42;97015.72;;;17.21;100.00
24306;BME280;12423;48.768;8.850;2022-10-20T11:16:06;97012.19;;;17.12;100.00
24306;BME280;12423;48.768;8.850;2022-10-20T11:20:28;97006.84;;;17.04;100.00
24306;BME280;12423;48.768;8.850;2022-10-20T11:26:47;96995.72;;;16.99;100.00
24306;BME280;12423;48.768;8.850;2022-10-20T11:28:53;96985.66;;;16.85;100.00
24306;BME280;12423;48.768;8.850;2022-10-20T11:30:57;96987.34;;;16.86;100.00
24306;BME280;12423;48.768;8.850;2022-10-20T11:33:15;96982.56;;;17.04;100.00
24306;BME280;12423;48.768;8.850;2022-10-20T11:35:23;96978.28;;;17.18;100.00
24306;BME280;12423;48.768;8.850;2022-10-20T11:37:37;96982.81;;;17.26;100.00
24306;BME280;12423;48.768;8.850;2022-10-20T11:39:50;96983.13;;;17.31;100.00
24306;BME280;12423;48.768;8.850;2022-10-20T11:41:57;96975.09;;;17.15;100.00
24306;BME280;12423;48.768;8.850;2022-10-20T11:44:09;96980.03;;;17.11;100.00
24306;BME280;12423;48.768;8.850;2022-10-20T11:46:19;96974.81;;;17.01;100.00
24306;BME280;12423;48.768;8.850;2022-10-20T11:48:44;96966.91;;;17.00;100.00